Aérodrome :
LOGIN :

S'inscrire | Disclaimer

   EN    FR    IT 

 










Légende :    VFR   VFR Marginal   IFR   IFR Intensif   IFR Très Intensif
Visi : 
Plafond : 
>= 8 km
>= 3000ft
5 à 8 km
1000 à 3000 ft
1500m à 5 km
500 à 1000 ft
800 à 1500m
200 à 500 ft
< 800m
< 200 ft
Symboles :   Orages  Brouillard  Fortes neiges  Fortes précipitations  Vent > 20 kt
SIGMETs :   Divers  Orages  Givrage  Turbulence  Onde Orograph.  Cendres Volcan.







- Altitude de l'aérodrome : 49 ft
- Code IATA : GLZ


EHGR - Gilze-Rijen Airbase

DERNIER METAR :
  • 260525Z AUTO 19006KT 150V220 9999 SCT078 OVC160 08/07 Q1011 BLU

METARs EXPIRÉS :
  • 260455Z AUTO 18004KT 9999 OVC160 07/06 Q1010 BLU
  • 260425Z AUTO 19005KT 160V220 9999 OVC110 08/07 Q1010 BLU
  • 260355Z AUTO 18005KT 140V220 9999 OVC120 08/07 Q1010 BLU
  • 260325Z AUTO 19006KT 150V230 9999 OVC120 08/07 Q1010 BLU
  • 260255Z AUTO 18005KT 140V210 9999 BKN120 07/06 Q1009 BLU

TAF TAF EHGR
Valide du 26 à 05h jusqu'au 26 à 17h UTC


260421Z 2605/2617 18005KT CAVOK
BECMG 2606/2608 23008KT SCT015
BECMG 2608/2610 SCT020
PROB30
TEMPO 2611/2615 FEW020CB SCT025
TEMPO 2615/2617 24010G22KT 4000 SHRA SCT025CB BKN030
Pas de NOTAMs connus pour ce terrain.



MET'MAP, la Météo Aéronautique d'un coup d'oeil ! - Copyright ORBIFLY Décembre 2007 - Disclaimer

ORBIFLY MET'MAP TEAM :

Programmation & Développement : Alexandra Zaïnal
Conception & Développement : Baudouin d'Aumeries
Co-Programmation & Développement : Marc-Olivier Méhu
Soutien technique & logistique : Manuel Goepfert

Contact : metmap@orbifly.com




SOURCES & CREDITS :

   NOAA